Lakota, Iowa
Current Conditions -  °F | °C
As of 9:55 PM on Friday 28 Nov 2014 (Local Time) from KAXA Reporting Station
Clear Clear  
Wind Chill: 14°   Ceiling: Unl
Heat Index: 27°   Visibility: 8mi
Dew Point: 25°   Wind: 16mph
Humidity: 93%   Direction: 130°SE
Pressure: 29.66"   Gusts: 23mph
Location:  43.38°N, 94.09°W
Report Text: KAXA 290355Z AUTO 13014G20KT 8SM CLR M03/M04 A2966 RMK AO2
Loading
Personal Weather Stations






























Interactive Weather Map New forecast layout! Learn more

10-Day Weather Forecast

Advertisements
Track Severe Weather on mobile